Ilfracombe, United Kingdom
Current Conditions -  °F | °C
As of 6:50 PM on Friday 21 Nov 2014 (Local Time) from EGDX Reporting Station
Overcast Overcast  
Wind Chill: 52°   Ceiling: 600
Heat Index: 52°   Visibility: 6mi
Dew Point: 50°   Wind: 14mph
Humidity: 94%   Direction: 100°E
Pressure: 29.83"   Gusts: NA
Location:  51.21°N, 4.11°W
Report Text: EGDX 211850Z AUTO 10012KT 9999 OVC006/// 11/10 Q1010 RERA
Loading
Personal Weather Stations






























Interactive Weather Map New forecast layout! Learn more

10-Day Weather Forecast

Advertisements
Track Severe Weather on mobile